Time;durP1;ratioP1;P1;durP2;ratioP2;P2;SDS_P1;SDS_P2;PMS_P1;PMS_P2;Temp;Humidity;BMP_temperature;BMP_pressure;BME280_temperature;BME280_humidity;BME280_pressure;Samples;Min_cycle;Max_cycle;Signal;HPM_P1;HPM_P2
2021/07/08 00:00:22;;;;;;;0.25;0.20;;;;;;;18.25;75.23;100604.16;4952567;28;20039;-79
2021/07/08 00:02:53;;;;;;;0.10;0.10;;;;;;;18.24;74.80;100607.88;4938875;28;20043;-78
2021/07/08 00:05:25;;;;;;;0.20;0.20;;;;;;;18.19;75.14;100607.59;4949148;28;20043;-78
2021/07/08 00:07:53;;;;;;;0.20;0.20;;;;;;;18.14;75.24;100602.66;4954197;28;20114;-79
2021/07/08 00:10:30;;;;;;;0.10;0.10;;;;;;;18.13;75.28;100605.53;4908750;28;20049;-78
2021/07/08 00:12:59;;;;;;;0.10;0.10;;;;;;;18.05;75.14;100610.00;4959967;28;20211;-83
2021/07/08 00:15:32;;;;;;;0.20;0.20;;;;;;;18.00;75.64;100617.91;4960364;28;20051;-80
2021/07/08 00:17:59;;;;;;;0.10;0.10;;;;;;;17.95;75.52;100617.59;4946301;28;20044;-78
2021/07/08 00:20:28;;;;;;;0.10;0.10;;;;;;;17.93;75.05;100616.91;4943711;28;20150;-79
2021/07/08 00:22:58;;;;;;;0.25;0.17;;;;;;;17.89;75.19;100615.56;4948004;28;20051;-80
2021/07/08 00:25:27;;;;;;;0.32;0.10;;;;;;;17.91;75.02;100618.94;4947438;29;20046;-78
2021/07/08 00:27:55;;;;;;;0.20;0.20;;;;;;;17.90;75.11;100622.72;4956516;28;20568;-77
2021/07/08 00:30:23;;;;;;;0.20;0.20;;;;;;;17.91;74.80;100624.41;4969546;28;20035;-79
2021/07/08 00:32:52;;;;;;;0.10;0.10;;;;;;;17.84;75.27;100620.69;4949365;28;20031;-80
2021/07/08 00:35:29;;;;;;;0.10;0.10;;;;;;;17.82;75.94;100628.22;4967736;28;20044;-80
2021/07/08 00:37:55;;;;;;;0.10;0.10;;;;;;;17.78;76.03;100624.97;4974089;28;20047;-79
2021/07/08 00:40:21;;;;;;;0.10;0.10;;;;;;;17.80;76.06;100624.78;4937096;28;20061;-80
2021/07/08 00:42:47;;;;;;;0.20;0.20;;;;;;;17.83;76.11;100627.19;4926015;28;20058;-79
2021/07/08 00:45:15;;;;;;;0.10;0.10;;;;;;;17.83;76.61;100628.03;4964531;28;20094;-79
2021/07/08 00:47:42;;;;;;;0.10;0.10;;;;;;;17.82;76.82;100625.47;4932667;28;20042;-80
2021/07/08 00:50:09;;;;;;;0.10;0.10;;;;;;;17.77;77.18;100633.34;4945663;28;20043;-79
2021/07/08 00:52:36;;;;;;;0.20;0.20;;;;;;;17.77;77.07;100633.34;4944326;28;20051;-78
2021/07/08 00:55:03;;;;;;;0.30;0.20;;;;;;;17.76;77.03;100637.97;4936592;28;20047;-80
2021/07/08 00:57:29;;;;;;;0.10;0.10;;;;;;;17.74;77.12;100633.69;4950008;28;20070;-80
2021/07/08 00:59:55;;;;;;;0.10;0.10;;;;;;;17.77;76.78;100639.69;4926778;28;20103;-79
2021/07/08 01:02:21;;;;;;;0.25;0.10;;;;;;;17.80;76.77;100643.94;4919709;28;20043;-79
2021/07/08 01:04:48;;;;;;;0.10;0.10;;;;;;;17.85;76.61;100646.19;4950902;28;20039;-79
2021/07/08 01:07:16;;;;;;;0.20;0.20;;;;;;;17.90;76.84;100644.59;4922507;28;20139;-79
2021/07/08 01:09:41;;;;;;;0.15;0.15;;;;;;;17.90;75.95;100650.06;4964952;28;20238;-78
2021/07/08 01:12:08;;;;;;;0.10;0.10;;;;;;;17.87;76.53;100647.69;4915075;28;20043;-78
2021/07/08 01:14:34;;;;;;;0.20;0.20;;;;;;;17.89;76.25;100653.00;4936470;28;20043;-78
2021/07/08 01:17:00;;;;;;;0.10;0.10;;;;;;;17.87;76.18;100655.91;4958723;28;20100;-80
2021/07/08 01:19:27;;;;;;;0.10;0.10;;;;;;;17.88;76.29;100657.63;4950568;28;20046;-78
2021/07/08 01:21:53;;;;;;;0.10;0.10;;;;;;;17.83;76.29;100658.13;4921730;28;20043;-80
2021/07/08 01:24:19;;;;;;;0.10;0.10;;;;;;;17.79;76.43;100653.19;4939420;28;20612;-80
2021/07/08 01:26:45;;;;;;;0.20;0.15;;;;;;;17.75;75.94;100654.53;4953118;28;20074;-79
2021/07/08 01:29:12;;;;;;;0.10;0.10;;;;;;;17.69;74.42;100664.25;4924160;28;20588;-79
2021/07/08 01:31:38;;;;;;;0.10;0.10;;;;;;;17.62;74.20;100663.25;4943850;28;20110;-80
2021/07/08 01:34:04;;;;;;;0.10;0.10;;;;;;;17.59;74.08;100664.47;4944245;28;20040;-79
2021/07/08 01:36:30;;;;;;;0.10;0.10;;;;;;;17.65;74.29;100664.78;4946673;28;20512;-79
2021/07/08 01:38:56;;;;;;;0.10;0.10;;;;;;;17.71;74.04;100667.69;4935941;28;20071;-79
2021/07/08 01:41:22;;;;;;;0.10;0.10;;;;;;;17.74;74.50;100661.03;4945059;28;20066;-79
2021/07/08 01:43:48;;;;;;;0.20;0.20;;;;;;;17.66;74.64;100663.75;4953121;28;20425;-78
2021/07/08 01:46:15;;;;;;;0.20;0.20;;;;;;;17.62;74.40;100662.38;4962050;28;20043;-78
2021/07/08 01:48:43;;;;;;;0.13;0.13;;;;;;;17.68;74.22;100659.81;4935780;28;20055;-79
2021/07/08 01:51:24;;;;;;;0.30;0.20;;;;;;;17.80;74.03;100660.34;4945880;28;20457;-80
2021/07/08 01:53:51;;;;;;;0.20;0.13;;;;;;;17.88;73.60;100667.69;4936734;28;20484;-80
2021/07/08 01:56:17;;;;;;;0.20;0.15;;;;;;;17.98;73.10;100671.09;4962693;28;20217;-78
2021/07/08 01:58:44;;;;;;;0.20;0.20;;;;;;;18.08;72.96;100667.13;4940466;28;20039;-80
2021/07/08 02:01:11;;;;;;;0.15;0.15;;;;;;;18.17;72.19;100664.38;4938368;28;20035;-79
2021/07/08 02:03:37;;;;;;;0.20;0.20;;;;;;;18.28;72.30;100672.19;4964389;28;20043;-78
2021/07/08 02:06:04;;;;;;;0.10;0.10;;;;;;;18.33;72.77;100672.53;4924466;28;20106;-79
2021/07/08 02:08:30;;;;;;;0.10;0.10;;;;;;;18.38;73.05;100672.84;4938037;28;20031;-80
2021/07/08 02:10:56;;;;;;;0.20;0.20;;;;;;;18.40;73.10;100670.81;4922151;28;20089;-78
2021/07/08 02:13:22;;;;;;;0.10;0.10;;;;;;;18.41;73.24;100671.66;4941823;28;20043;-81
2021/07/08 02:15:47;;;;;;;1.50;0.90;;;;;;;18.39;73.47;100676.44;4938006;28;20054;-79
2021/07/08 02:18:13;;;;;;;0.43;0.35;;;;;;;18.41;73.33;100667.03;4940793;28;20042;-80
2021/07/08 02:20:39;;;;;;;0.25;0.20;;;;;;;18.42;73.20;100670.63;4939294;28;20121;-77
2021/07/08 02:23:06;;;;;;;0.10;0.10;;;;;;;18.47;73.62;100662.75;4941199;28;20501;-81
2021/07/08 02:25:32;;;;;;;0.20;0.20;;;;;;;18.50;73.01;100668.72;4951033;28;20114;-78
2021/07/08 02:27:58;;;;;;;0.28;0.20;;;;;;;18.55;73.27;100665.44;4973438;28;20031;-78
2021/07/08 02:30:26;;;;;;;0.10;0.10;;;;;;;18.60;72.11;100670.38;4958937;28;20035;-78
2021/07/08 02:32:55;;;;;;;1.10;0.40;;;;;;;18.62;72.27;100671.06;4972255;28;20046;-76
2021/07/08 02:35:23;;;;;;;0.40;0.20;;;;;;;18.69;72.00;100674.78;4963756;28;20042;-79
2021/07/08 02:37:49;;;;;;;0.32;0.20;;;;;;;18.71;71.68;100673.59;4960077;28;20046;-77
2021/07/08 02:40:18;;;;;;;0.28;0.28;;;;;;;18.72;70.81;100669.84;4960410;28;20069;-77
2021/07/08 02:42:51;;;;;;;0.20;0.20;;;;;;;18.75;70.01;100671.34;4965943;28;20039;-77
2021/07/08 02:45:22;;;;;;;0.30;0.30;;;;;;;18.81;70.23;100670.63;4985494;28;20130;-80
2021/07/08 02:47:49;;;;;;;0.20;0.20;;;;;;;18.89;70.22;100673.31;4955489;28;20071;-79
2021/07/08 02:50:17;;;;;;;0.20;0.20;;;;;;;19.03;68.99;100669.81;4965108;28;20043;-80
2021/07/08 02:52:43;;;;;;;0.22;0.22;;;;;;;19.17;68.42;100668.19;4945416;28;20054;-79
2021/07/08 02:55:10;;;;;;;0.38;0.30;;;;;;;19.31;68.69;100665.69;4928451;28;20054;-80
2021/07/08 02:57:38;;;;;;;0.20;0.20;;;;;;;19.49;67.63;100678.06;4948793;28;20245;-80
2021/07/08 03:00:10;;;;;;;0.30;0.28;;;;;;;19.68;66.72;100684.94;4929100;28;20159;-79
2021/07/08 03:02:36;;;;;;;0.20;0.20;;;;;;;19.87;66.51;100674.47;4919047;28;20091;-80
2021/07/08 03:05:04;;;;;;;0.20;0.20;;;;;;;20.05;64.47;100683.22;4915880;29;20035;-78
2021/07/08 03:07:29;;;;;;;0.20;0.20;;;;;;;20.22;64.19;100681.16;4944815;29;20050;-80
2021/07/08 03:09:55;;;;;;;0.20;0.20;;;;;;;20.33;63.39;100677.06;4936772;29;20153;-79
2021/07/08 03:12:21;;;;;;;0.20;0.20;;;;;;;20.50;62.36;100686.00;4950222;28;20043;-80
2021/07/08 03:14:47;;;;;;;0.20;0.20;;;;;;;20.68;61.42;100683.69;4957838;28;20043;-79
2021/07/08 03:17:13;;;;;;;0.20;0.20;;;;;;;20.87;60.60;100679.50;4956008;28;20047;-81
2021/07/08 03:19:38;;;;;;;0.20;0.20;;;;;;;21.03;59.79;100672.94;4961401;28;20054;-82
2021/07/08 03:22:05;;;;;;;0.20;0.20;;;;;;;21.17;60.14;100683.00;4963864;28;20106;-80
2021/07/08 03:24:31;;;;;;;0.30;0.30;;;;;;;21.34;60.45;100673.47;4966187;28;20046;-79
2021/07/08 03:26:56;;;;;;;0.20;0.20;;;;;;;21.52;58.94;100681.28;4941419;28;20525;-81
2021/07/08 03:29:22;;;;;;;0.30;0.30;;;;;;;21.72;58.47;100681.47;4946885;28;20086;-80
2021/07/08 03:31:48;;;;;;;0.20;0.20;;;;;;;21.90;57.67;100681.81;4946873;28;20497;-81
2021/07/08 03:34:14;;;;;;;0.20;0.20;;;;;;;22.10;57.53;100681.13;4953995;28;20394;-78
2021/07/08 03:36:40;;;;;;;0.30;0.30;;;;;;;22.33;57.34;100678.94;4951780;28;20048;-79
2021/07/08 03:39:07;;;;;;;0.20;0.20;;;;;;;22.49;55.65;100680.53;4957259;28;20105;-79
2021/07/08 03:41:33;;;;;;;0.20;0.20;;;;;;;22.68;55.09;100689.97;4940066;28;20051;-79
2021/07/08 03:43:59;;;;;;;0.20;0.20;;;;;;;22.82;55.20;100680.69;4951433;28;20122;-79
2021/07/08 03:46:25;;;;;;;0.25;0.20;;;;;;;23.03;53.46;100673.34;4950282;28;20042;-80
2021/07/08 03:48:51;;;;;;;0.20;0.20;;;;;;;23.33;52.70;100671.09;4947107;28;20083;-83
2021/07/08 03:51:17;;;;;;;0.20;0.20;;;;;;;23.51;51.47;100667.69;4946663;28;20031;-80
2021/07/08 03:53:43;;;;;;;0.20;0.20;;;;;;;23.86;50.84;100675.81;4945073;28;20047;-83
2021/07/08 03:56:09;;;;;;;0.20;0.20;;;;;;;24.09;50.89;100680.91;4944958;28;20039;-81
2021/07/08 03:58:36;;;;;;;0.15;0.15;;;;;;;24.16;49.91;100682.56;4933323;28;20075;-82
2021/07/08 04:01:03;;;;;;;0.20;0.20;;;;;;;24.18;49.88;100682.38;4936468;29;20067;-80
2021/07/08 04:03:28;;;;;;;0.47;0.30;;;;;;;24.31;49.15;100679.56;4954157;28;20069;-83
2021/07/08 04:05:54;;;;;;;0.20;0.20;;;;;;;24.34;49.49;100684.66;4945756;28;20043;-80
2021/07/08 04:08:21;;;;;;;0.30;0.30;;;;;;;24.46;49.83;100676.59;4967051;28;20093;-81
2021/07/08 04:10:47;;;;;;;0.30;0.20;;;;;;;24.52;48.26;100686.78;4918288;29;20046;-80
2021/07/08 04:13:18;;;;;;;0.20;0.20;;;;;;;24.61;48.04;100688.25;4938683;29;20425;-80
2021/07/08 04:15:46;;;;;;;0.20;0.20;;;;;;;24.74;47.09;100684.56;4929616;29;20047;-80
2021/07/08 04:18:13;;;;;;;0.30;0.30;;;;;;;25.03;47.37;100688.69;4951127;28;20051;-82
2021/07/08 04:20:40;;;;;;;0.20;0.20;;;;;;;25.18;46.06;100680.97;4939785;29;20461;-81
2021/07/08 04:23:08;;;;;;;0.28;0.28;;;;;;;25.42;46.21;100681.28;4946527;28;20047;-79
2021/07/08 04:25:34;;;;;;;0.20;0.20;;;;;;;25.56;45.33;100677.34;4931324;28;20118;-81
2021/07/08 04:28:01;;;;;;;0.30;0.30;;;;;;;25.74;44.94;100680.16;4941072;29;20043;-82
2021/07/08 04:30:28;;;;;;;0.22;0.22;;;;;;;25.83;44.58;100677.16;4949652;28;20050;-82
2021/07/08 04:32:55;;;;;;;0.40;0.32;;;;;;;26.13;44.07;100689.22;4959520;28;20043;-81
2021/07/08 04:35:31;;;;;;;0.30;0.30;;;;;;;26.23;43.07;100688.69;4947213;28;20102;-79
2021/07/08 04:37:58;;;;;;;0.22;0.22;;;;;;;26.64;42.50;100690.81;4931458;28;20046;-79
2021/07/08 04:40:24;;;;;;;0.30;0.30;;;;;;;27.00;42.24;100682.69;4919925;28;20405;-84
2021/07/08 04:42:51;;;;;;;0.30;0.30;;;;;;;27.31;40.99;100685.25;4962545;28;20035;-80
2021/07/08 04:45:19;;;;;;;0.30;0.30;;;;;;;27.57;40.86;100684.03;4950379;28;20031;-80
2021/07/08 04:47:46;;;;;;;0.40;0.40;;;;;;;27.93;40.22;100682.16;4954145;28;20527;-82
2021/07/08 04:50:17;;;;;;;0.32;0.32;;;;;;;27.81;40.08;100678.53;4954601;28;20139;-82
2021/07/08 04:52:45;;;;;;;0.30;0.30;;;;;;;28.23;39.50;100686.75;4958225;28;20520;-82
2021/07/08 04:55:12;;;;;;;0.30;0.30;;;;;;;28.42;38.81;100680.03;4950271;28;20074;-82
2021/07/08 04:57:38;;;;;;;0.40;0.40;;;;;;;28.84;38.28;100688.97;4953412;28;20110;-82
2021/07/08 05:00:06;;;;;;;0.40;0.40;;;;;;;29.19;38.18;100692.78;4959574;28;20043;-82
2021/07/08 05:02:32;;;;;;;0.30;0.30;;;;;;;29.39;36.74;100690.38;4941473;28;20213;-84
2021/07/08 05:04:59;;;;;;;0.30;0.30;;;;;;;29.54;36.83;100682.31;4951185;28;20100;-82
2021/07/08 05:07:25;;;;;;;0.30;0.30;;;;;;;29.83;36.77;100685.03;4957599;28;20046;-83
2021/07/08 05:09:53;;;;;;;0.30;0.30;;;;;;;29.99;35.79;100680.56;4949523;28;20083;-79
2021/07/08 05:12:23;;;;;;;0.50;0.50;;;;;;;29.86;36.25;100684.53;4955557;28;20119;-82
2021/07/08 05:14:49;;;;;;;0.30;0.30;;;;;;;29.76;36.62;100695.50;4952065;28;20078;-81
2021/07/08 05:17:19;;;;;;;0.40;0.40;;;;;;;30.23;36.80;100695.19;4912135;28;20035;-81
2021/07/08 05:19:45;;;;;;;0.40;0.40;;;;;;;30.57;35.33;100700.69;4923535;28;20045;-81
2021/07/08 05:22:11;;;;;;;0.40;0.40;;;;;;;30.90;34.62;100697.00;4951047;28;20031;-81
2021/07/08 05:24:39;;;;;;;0.40;0.40;;;;;;;31.18;34.64;100698.69;4946668;28;20047;-82
2021/07/08 05:27:06;;;;;;;0.40;0.40;;;;;;;31.46;33.11;100687.28;4941281;28;20058;-82
2021/07/08 05:29:32;;;;;;;0.40;0.40;;;;;;;31.46;33.23;100700.44;4955418;28;20043;-81
2021/07/08 05:31:58;;;;;;;0.40;0.40;;;;;;;31.89;32.90;100704.22;4943400;28;20069;-82
2021/07/08 05:34:24;;;;;;;0.50;0.50;;;;;;;32.10;32.74;100696.81;4960328;28;20044;-82
2021/07/08 05:36:50;;;;;;;0.40;0.40;;;;;;;32.51;31.19;100702.72;4924336;28;20031;-82
2021/07/08 05:39:16;;;;;;;0.40;0.40;;;;;;;32.58;31.94;100698.56;4951061;28;20054;-83
2021/07/08 05:41:43;;;;;;;0.40;0.40;;;;;;;32.79;31.71;100699.47;4930776;28;20584;-82
2021/07/08 05:44:09;;;;;;;0.40;0.40;;;;;;;33.10;31.13;100708.06;4950706;28;20071;-79
2021/07/08 05:46:36;;;;;;;0.40;0.40;;;;;;;33.15;31.23;100708.06;4955795;28;20117;-82
2021/07/08 05:49:02;;;;;;;0.40;0.40;;;;;;;33.24;30.00;100708.34;4934413;28;20047;-82
2021/07/08 05:51:30;;;;;;;0.50;0.50;;;;;;;33.06;29.17;100698.53;4951031;28;20043;-80
2021/07/08 05:53:59;;;;;;;0.50;0.50;;;;;;;33.34;29.07;100706.41;4938881;28;20058;-80
2021/07/08 05:56:29;;;;;;;0.50;0.50;;;;;;;33.65;28.39;100694.47;4942152;28;20035;-81
2021/07/08 05:58:55;;;;;;;0.50;0.50;;;;;;;34.13;27.74;100695.88;4942853;29;20058;-83
2021/07/08 06:01:24;;;;;;;0.50;0.50;;;;;;;34.18;27.28;100692.22;4943603;28;20035;-83
2021/07/08 06:03:50;;;;;;;0.40;0.40;;;;;;;34.53;26.65;100688.53;4921426;28;20063;-80
2021/07/08 06:06:17;;;;;;;0.50;0.50;;;;;;;34.39;25.03;100693.03;4942200;28;20032;-81
2021/07/08 06:08:44;;;;;;;0.50;0.50;;;;;;;34.17;26.32;100694.19;4931868;29;20485;-84
2021/07/08 06:11:11;;;;;;;0.50;0.50;;;;;;;34.36;24.48;100694.41;4952862;28;20044;-80
2021/07/08 06:13:37;;;;;;;0.50;0.50;;;;;;;34.59;24.82;100698.59;4942094;29;20067;-83
2021/07/08 06:16:04;;;;;;;0.52;0.52;;;;;;;35.28;24.34;100699.72;4938026;28;20078;-83
2021/07/08 06:18:30;;;;;;;0.57;0.57;;;;;;;35.59;24.56;100694.75;4934880;29;20048;-83
2021/07/08 06:20:56;;;;;;;0.50;0.50;;;;;;;34.12;24.83;100697.00;4945739;28;20143;-84
2021/07/08 06:23:23;;;;;;;0.50;0.50;;;;;;;33.93;25.08;100690.22;4931267;29;20540;-82
2021/07/08 06:25:50;;;;;;;0.52;0.52;;;;;;;34.77;24.14;100695.19;4950826;28;20062;-81
2021/07/08 06:28:17;;;;;;;0.60;0.60;;;;;;;35.23;24.28;100697.78;4927442;29;20047;-82
2021/07/08 06:30:44;;;;;;;0.60;0.60;;;;;;;33.99;24.10;100694.75;4930988;29;20044;-81
2021/07/08 06:33:10;;;;;;;0.60;0.60;;;;;;;34.18;24.45;100686.59;4926419;29;20043;-82
2021/07/08 06:35:36;;;;;;;0.57;0.57;;;;;;;35.34;23.52;100692.09;4915349;29;20083;-80
2021/07/08 06:38:03;;;;;;;0.60;0.60;;;;;;;35.49;23.58;100692.81;4943227;28;20044;-83
2021/07/08 06:40:30;;;;;;;0.60;0.60;;;;;;;36.16;23.49;100693.16;4947023;28;20043;-82
2021/07/08 06:42:58;;;;;;;0.60;0.60;;;;;;;36.09;23.48;100694.63;4945636;28;20098;-81
2021/07/08 06:45:24;;;;;;;0.60;0.60;;;;;;;36.58;22.52;100694.44;4936175;29;20051;-81
2021/07/08 06:47:51;;;;;;;0.60;0.60;;;;;;;36.92;22.37;100699.09;4928063;29;20040;-80
2021/07/08 06:50:19;;;;;;;0.60;0.60;;;;;;;36.82;22.09;100704.84;4924755;29;20040;-80
2021/07/08 06:52:45;;;;;;;0.60;0.60;;;;;;;35.31;23.13;100692.69;4944560;28;20066;-79
2021/07/08 06:55:12;;;;;;;0.60;0.60;;;;;;;35.73;23.39;100704.22;4948080;28;20058;-82
2021/07/08 06:57:51;;;;;;;0.60;0.60;;;;;;;35.08;23.39;100695.06;4951463;28;20019;-84
2021/07/08 07:00:19;;;;;;;0.90;0.90;;;;;;;35.23;23.89;100697.78;4914278;29;20047;-82
2021/07/08 07:02:46;;;;;;;0.70;0.70;;;;;;;35.25;23.56;100695.53;4937746;28;20040;-80
2021/07/08 07:05:12;;;;;;;0.73;0.73;;;;;;;36.55;22.36;100703.47;4931628;29;20545;-82
2021/07/08 07:07:39;;;;;;;0.70;0.70;;;;;;;35.46;22.21;100695.38;4942306;28;20052;-80
2021/07/08 07:10:07;;;;;;;0.70;0.70;;;;;;;36.75;20.83;100699.59;4931613;29;20163;-81
2021/07/08 07:12:41;;;;;;;0.80;0.80;;;;;;;37.72;20.09;100705.88;4920838;29;20036;-81
2021/07/08 07:15:08;;;;;;;0.80;0.80;;;;;;;36.83;20.87;100706.56;4926828;28;20043;-83
2021/07/08 07:17:36;;;;;;;0.93;0.93;;;;;;;36.82;21.04;100699.22;4929317;29;20095;-80
2021/07/08 07:20:06;;;;;;;0.70;0.70;;;;;;;37.54;20.06;100705.59;4939560;29;20043;-82
2021/07/08 07:22:33;;;;;;;0.70;0.70;;;;;;;37.60;20.27;100707.19;4936035;29;20035;-83
2021/07/08 07:25:00;;;;;;;0.82;0.82;;;;;;;37.25;20.29;100704.88;4944353;29;20247;-80
2021/07/08 07:27:27;;;;;;;0.80;0.80;;;;;;;38.12;19.54;100693.91;4924741;29;20083;-80
2021/07/08 07:29:53;;;;;;;0.80;0.80;;;;;;;39.11;18.90;100707.81;4916070;29;20070;-81
2021/07/08 07:32:19;;;;;;;0.80;0.80;;;;;;;39.39;18.66;100703.78;4907435;29;20073;-80
2021/07/08 07:34:45;;;;;;;0.90;0.90;;;;;;;40.17;17.55;100706.44;4943369;28;20509;-82
2021/07/08 07:37:12;;;;;;;0.98;0.98;;;;;;;40.06;17.86;100705.81;4936618;28;20043;-79
2021/07/08 07:39:38;;;;;;;0.63;0.63;;;;;;;40.21;17.69;100707.44;4921219;29;20052;-79
2021/07/08 07:42:04;;;;;;;0.40;0.40;;;;;;;39.91;17.57;100698.56;4927198;29;20042;-80
2021/07/08 07:44:31;;;;;;;0.20;0.20;;;;;;;38.37;19.06;100700.25;4928976;29;20068;-84
2021/07/08 07:46:57;;;;;;;0.20;0.20;;;;;;;37.43;20.56;100703.25;4918839;29;20058;-80
2021/07/08 07:49:24;;;;;;;0.40;0.40;;;;;;;36.87;20.48;100696.34;4925503;29;20046;-81
2021/07/08 07:51:50;;;;;;;0.50;0.50;;;;;;;38.21;20.09;100701.66;4931663;29;20048;-81
2021/07/08 07:54:16;;;;;;;0.50;0.50;;;;;;;37.30;20.30;100704.78;4918383;29;20043;-80
2021/07/08 07:56:42;;;;;;;0.95;0.95;;;;;;;38.72;19.57;100703.50;4946888;28;20051;-81
2021/07/08 07:59:08;;;;;;;0.10;0.10;;;;;;;38.50;19.75;100704.25;4948261;28;20055;-81
2021/07/08 08:01:34;;;;;;;0.10;0.10;;;;;;;36.73;21.39;100706.66;4937904;29;20047;-84
2021/07/08 08:04:01;;;;;;;0.30;0.30;;;;;;;36.26;21.71;100695.03;4912322;29;20054;-83
2021/07/08 08:09:13;;;;;;;0.35;0.35;;;;;;;37.60;21.02;100700.72;4955239;28;20054;-83
2021/07/08 08:11:40;;;;;;;0.60;0.60;;;;;;;37.74;20.33;100700.78;4941167;29;20079;-82
2021/07/08 08:14:06;;;;;;;1.15;1.15;;;;;;;37.95;19.85;100699.28;4935280;29;20075;-82
2021/07/08 08:16:35;;;;;;;1.02;1.02;;;;;;;37.28;21.05;100695.81;4952494;28;20074;-84
2021/07/08 08:19:01;;;;;;;1.00;1.00;;;;;;;37.68;19.80;100696.34;4954344;28;20063;-81
2021/07/08 08:21:28;;;;;;;1.00;1.00;;;;;;;37.78;19.82;100699.00;4927076;29;20095;-83
2021/07/08 08:23:55;;;;;;;1.00;1.00;;;;;;;39.11;19.44;100691.66;4936881;29;20118;-82
2021/07/08 08:26:21;;;;;;;0.93;0.93;;;;;;;40.07;17.78;100695.31;4931620;29;20481;-83
2021/07/08 08:28:51;;;;;;;1.10;1.10;;;;;;;41.07;16.94;100689.16;4911050;29;20520;-82
2021/07/08 08:31:18;;;;;;;0.93;0.93;;;;;;;39.94;18.20;100686.59;4917686;29;20055;-82
2021/07/08 08:33:45;;;;;;;1.00;1.00;;;;;;;38.09;19.96;100688.88;4949441;28;20130;-81
2021/07/08 08:36:11;;;;;;;1.00;1.00;;;;;;;39.37;19.01;100683.44;4940557;28;20090;-83
2021/07/08 08:38:37;;;;;;;0.90;0.90;;;;;;;38.30;19.51;100680.03;4927036;29;20039;-82
2021/07/08 08:41:05;;;;;;;0.80;0.80;;;;;;;37.07;21.15;100679.16;4940795;28;20134;-84
2021/07/08 08:43:32;;;;;;;0.90;0.90;;;;;;;38.42;19.08;100683.19;4935581;29;20054;-80
2021/07/08 08:46:00;;;;;;;1.20;1.20;;;;;;;39.88;18.15;100681.38;4952848;28;20114;-83
2021/07/08 08:48:26;;;;;;;0.90;0.90;;;;;;;40.31;18.10;100678.00;4935069;29;20050;-82
2021/07/08 08:50:54;;;;;;;0.98;0.98;;;;;;;39.51;18.06;100678.59;4937081;29;20098;-84
2021/07/08 08:53:20;;;;;;;0.90;0.90;;;;;;;38.25;19.42;100671.63;4907819;29;20043;-82
2021/07/08 08:55:48;;;;;;;1.00;1.00;;;;;;;39.52;18.45;100671.75;4923773;28;20098;-81
2021/07/08 08:58:19;;;;;;;1.00;1.00;;;;;;;40.54;17.42;100675.91;4927543;29;20052;-83
2021/07/08 09:00:47;;;;;;;1.10;1.00;;;;;;;41.46;17.33;100673.16;4916542;29;20048;-80
2021/07/08 09:03:15;;;;;;;1.00;1.00;;;;;;;41.76;17.15;100683.53;4936917;29;20040;-81
2021/07/08 09:05:45;;;;;;;0.90;0.90;;;;;;;41.80;16.78;100684.50;4921991;29;20507;-83
2021/07/08 09:08:15;;;;;;;0.73;0.73;;;;;;;41.02;17.12;100680.78;4938914;29;20134;-83
2021/07/08 09:10:43;;;;;;;1.00;1.00;;;;;;;41.57;16.69;100680.16;4938817;29;20062;-84
2021/07/08 09:13:10;;;;;;;0.90;0.90;;;;;;;42.05;16.49;100681.97;4931513;29;20063;-82
2021/07/08 09:15:36;;;;;;;0.80;0.80;;;;;;;42.48;16.01;100675.31;4913041;29;20525;-82
2021/07/08 09:18:03;;;;;;;0.80;0.60;;;;;;;42.11;16.64;100677.78;4934717;29;20043;-82
2021/07/08 09:20:29;;;;;;;0.80;0.80;;;;;;;40.31;17.67;100670.31;4941937;28;20051;-84
2021/07/08 09:23:11;;;;;;;0.95;0.95;;;;;;;38.96;19.20;100660.91;4917655;29;20071;-84
2021/07/08 09:25:37;;;;;;;0.90;0.90;;;;;;;39.29;18.62;100667.25;4953376;28;20055;-81
2021/07/08 09:28:23;;;;;;;0.80;0.80;;;;;;;39.87;18.23;100663.56;4942828;28;20131;-82
2021/07/08 09:31:04;;;;;;;0.90;0.90;;;;;;;40.69;17.39;100667.00;4933199;29;20048;-83
2021/07/08 09:33:36;;;;;;;0.88;0.88;;;;;;;39.60;18.69;100652.34;4959365;28;20548;-84
2021/07/08 09:36:09;;;;;;;1.00;1.00;;;;;;;38.10;20.03;100645.38;4932282;29;20052;-83
2021/07/08 09:38:36;;;;;;;0.75;0.75;;;;;;;38.76;19.82;100650.84;4935285;29;20046;-82
2021/07/08 09:41:17;;;;;;;0.80;0.80;;;;;;;39.33;19.63;100648.47;4948817;28;20058;-80
2021/07/08 09:43:45;;;;;;;0.82;0.82;;;;;;;39.33;19.06;100654.13;4933806;29;20040;-82
2021/07/08 09:46:13;;;;;;;0.88;0.88;;;;;;;39.16;18.83;100653.94;4923613;29;20051;-81
2021/07/08 09:48:41;;;;;;;0.80;0.80;;;;;;;38.25;19.93;100637.72;4951871;28;20050;-83
2021/07/08 09:51:07;;;;;;;0.80;0.80;;;;;;;38.70;19.90;100654.94;4925167;29;20044;-82
2021/07/08 09:53:48;;;;;;;0.85;0.85;;;;;;;39.87;19.14;100646.56;4941214;29;20034;-81
2021/07/08 09:58:56;;;;;;;0.80;0.80;;;;;;;40.85;17.82;100648.38;4937643;29;20043;-81
2021/07/08 10:01:24;;;;;;;0.70;0.70;;;;;;;41.26;17.50;100652.78;4948142;29;20215;-84
2021/07/08 10:03:51;;;;;;;0.80;0.80;;;;;;;40.44;17.57;100649.56;4954992;29;20039;-82
2021/07/08 10:06:19;;;;;;;0.30;0.30;;;;;;;39.01;19.07;100636.16;4941934;29;20050;-85
2021/07/08 10:08:47;;;;;;;0.88;0.88;;;;;;;38.95;19.04;100631.78;4940426;29;20032;-84
2021/07/08 10:11:15;;;;;;;0.80;0.80;;;;;;;38.95;19.80;100637.44;4929806;29;20118;-85
2021/07/08 10:13:46;;;;;;;0.75;0.75;;;;;;;40.14;18.88;100639.06;4920624;29;20046;-84
2021/07/08 10:16:17;;;;;;;0.65;0.65;;;;;;;38.44;19.67;100638.53;4942294;29;20507;-82
2021/07/08 10:18:45;;;;;;;0.80;0.80;;;;;;;40.25;18.47;100634.78;4944774;29;20044;-82
2021/07/08 10:21:12;;;;;;;0.80;0.80;;;;;;;40.81;17.62;100641.69;4929045;29;20062;-81
2021/07/08 10:23:40;;;;;;;0.80;0.80;;;;;;;41.37;16.80;100639.91;4941763;29;20058;-81
2021/07/08 10:26:09;;;;;;;0.70;0.70;;;;;;;39.82;18.05;100621.19;4934090;29;20304;-82
2021/07/08 10:28:46;;;;;;;0.70;0.70;;;;;;;39.82;17.85;100623.19;4908741;29;20046;-81
2021/07/08 10:31:23;;;;;;;0.80;0.80;;;;;;;41.02;17.06;100632.53;4918868;29;20243;-84
2021/07/08 10:34:20;;;;;;;0.70;0.70;;;;;;;40.12;17.24;100624.38;4956093;28;20036;-84
2021/07/08 10:36:48;;;;;;;0.70;0.70;;;;;;;39.88;18.54;100619.91;4944548;29;20054;-84
2021/07/08 10:39:19;;;;;;;0.80;0.80;;;;;;;40.86;17.04;100621.66;4933053;29;20604;-84
2021/07/08 10:41:52;;;;;;;0.70;0.70;;;;;;;41.64;16.75;100623.72;4951699;28;20048;-86
2021/07/08 10:44:40;;;;;;;0.60;0.60;;;;;;;41.11;17.37;100617.22;4936820;29;20115;-82
2021/07/08 10:47:30;;;;;;;0.70;0.70;;;;;;;41.48;16.81;100619.75;4940149;29;20066;-84
2021/07/08 10:49:57;;;;;;;0.85;0.85;;;;;;;41.72;17.14;100620.00;4939843;29;20047;-84
2021/07/08 10:52:48;;;;;;;0.70;0.70;;;;;;;42.16;16.73;100612.22;4957652;28;20044;-84
2021/07/08 10:55:35;;;;;;;0.70;0.70;;;;;;;41.78;16.72;100612.16;4927750;29;20043;-83
2021/07/08 10:58:02;;;;;;;0.60;0.60;;;;;;;40.74;17.73;100601.63;4924108;29;20118;-84
2021/07/08 11:00:49;;;;;;;0.70;0.70;;;;;;;39.35;18.89;100609.38;4936903;29;20054;-82
2021/07/08 11:03:46;;;;;;;0.70;0.70;;;;;;;39.40;19.60;100617.72;4955023;28;20075;-83
2021/07/08 11:06:29;;;;;;;0.73;0.73;;;;;;;39.90;18.59;100614.78;4949926;29;20058;-85
2021/07/08 11:09:18;;;;;;;0.70;0.70;;;;;;;40.36;17.63;100619.16;4946302;29;20099;-84
2021/07/08 11:11:49;;;;;;;0.70;0.70;;;;;;;41.08;17.72;100614.22;4941984;29;20361;-83
2021/07/08 11:14:19;;;;;;;0.80;0.80;;;;;;;40.34;17.70;100610.16;4950320;29;20048;-84
2021/07/08 11:16:58;;;;;;;0.65;0.65;;;;;;;41.00;17.84;100609.38;4950286;28;20036;-83
2021/07/08 11:19:25;;;;;;;0.68;0.68;;;;;;;40.68;17.77;100602.94;4942618;29;20107;-84
2021/07/08 11:21:56;;;;;;;0.73;0.73;;;;;;;39.25;18.91;100601.13;4967665;23;20061;-83
2021/07/08 11:24:39;;;;;;;0.80;0.80;;;;;;;40.07;18.55;100593.34;4972786;28;20055;-83
2021/07/08 11:27:08;;;;;;;0.40;0.40;;;;;;;39.82;18.05;100587.22;4969849;28;20051;-83
2021/07/08 11:29:49;;;;;;;0.57;0.57;;;;;;;40.32;18.08;100577.63;4977382;28;20039;-83
2021/07/08 11:32:31;;;;;;;0.20;0.20;;;;;;;40.14;18.50;100583.22;4977269;28;20077;-83
2021/07/08 11:35:09;;;;;;;0.90;0.90;;;;;;;38.00;20.00;100586.25;4974963;28;20131;-83